Ituna, Canada
Current Conditions -  °F | °C
As of 3:00 AM on Friday 31 Oct 2014 (Local Time) from CYQV Reporting Station
Clear Clear  
Wind Chill: -12°   Ceiling: Unl
Heat Index: -5°   Visibility: 9mi
Dew Point: -7°   Wind: 13mph
Humidity: 86%   Direction: 160°SSE
Pressure: 30.44"   Gusts: NA
Location:  51.17°N, 103.5°W
Report Text: CYQV 310900Z AUTO 16011KT 9SM CLR M05/M07 A3044 RMK SLP341
Loading
Personal Weather Stations






























Interactive Weather Map
Tropical Storm Tracking
New forecast layout! Learn more

10-Day Weather Forecast

Advertisements
Track Severe Weather on mobile